Time;durP1;ratioP1;P1;durP2;ratioP2;P2;SDS_P1;SDS_P2;PMS_P1;PMS_P2;Temp;Humidity;BMP_temperature;BMP_pressure;BME280_temperature;BME280_humidity;BME280_pressure;Samples;Min_cycle;Max_cycle;Signal;HPM_P1;HPM_P2
2022/01/18 00:02:07;;;;;;;;;41.25;36.50;16.40;99.90;;;;;;5011787;28;11535;-44
2022/01/18 00:04:38;;;;;;;;;39.75;35.00;16.40;99.90;;;;;;5013104;28;12412;-46
2022/01/18 00:07:08;;;;;;;;;38.00;34.50;16.40;99.90;;;;;;5014971;28;11577;-44
2022/01/18 00:09:38;;;;;;;;;46.25;39.50;16.40;99.90;;;;;;5017642;28;11615;-43
2022/01/18 00:12:29;;;;;;;;;50.25;43.25;16.50;99.90;;;;;;5017010;28;11580;-47
2022/01/18 00:18:14;;;;;;;;;31.25;30.50;16.50;99.90;;;;;;4966391;28;11589;-45
2022/01/18 00:23:55;;;;;;;;;47.25;40.75;16.40;99.90;;;;;;5004076;28;12251;-47
2022/01/18 00:26:30;;;;;;;;;42.00;37.00;16.30;99.90;;;;;;5011978;28;11625;-44
2022/01/18 00:29:11;;;;;;;;;38.25;35.00;16.30;99.90;;;;;;4995877;28;11689;-45
2022/01/18 00:31:57;;;;;;;;;39.50;34.75;16.30;99.90;;;;;;5011031;28;12237;-46
2022/01/18 00:34:32;;;;;;;;;44.25;37.75;16.20;99.90;;;;;;5010239;28;11656;-47
2022/01/18 00:39:41;;;;;;;;;29.75;29.25;16.10;99.90;;;;;;5013494;28;11527;-43
2022/01/18 00:42:12;;;;;;;;;29.25;28.75;16.10;99.90;;;;;;5008771;28;11546;-46
2022/01/18 00:44:45;;;;;;;;;26.50;26.50;16.10;99.90;;;;;;5012811;28;11740;-44
2022/01/18 00:47:17;;;;;;;;;22.75;22.75;16.10;99.90;;;;;;5014094;28;11600;-49
2022/01/18 00:49:49;;;;;;;;;25.00;25.00;16.10;99.90;;;;;;5015426;28;11533;-48
2022/01/18 00:52:20;;;;;;;;;17.00;17.00;16.10;99.90;;;;;;5009759;28;11475;-54
2022/01/18 00:54:50;;;;;;;;;14.25;14.25;16.10;99.90;;;;;;4999158;28;11513;-53
2022/01/18 00:57:20;;;;;;;;;14.00;14.00;16.10;99.90;;;;;;5012333;28;11494;-53
2022/01/18 00:59:53;;;;;;;;;14.00;14.00;16.10;99.90;;;;;;5017931;28;11292;-54
2022/01/18 01:02:25;;;;;;;;;14.00;14.00;16.10;99.90;;;;;;4998012;28;11191;-44
2022/01/18 01:04:56;;;;;;;;;15.25;15.25;16.00;99.90;;;;;;4997469;28;10961;-44
2022/01/18 01:07:27;;;;;;;;;12.50;12.50;16.00;99.90;;;;;;5000713;28;11265;-44
2022/01/18 01:10:10;;;;;;;;;16.25;16.00;16.00;99.90;;;;;;5013694;28;11093;-43
2022/01/18 01:12:44;;;;;;;;;11.75;11.75;16.00;99.90;;;;;;5016016;28;11149;-46
2022/01/18 01:15:17;;;;;;;;;13.25;13.25;15.90;99.90;;;;;;5012284;28;11166;-47
2022/01/18 01:18:05;;;;;;;;;9.25;9.25;16.00;99.90;;;;;;5007886;28;11176;-45
2022/01/18 01:44:17;;;;;;;;;8.75;8.75;15.80;99.90;;;;;;5011413;28;10966;-52
2022/01/18 01:46:50;;;;;;;;;9.75;9.75;15.70;99.90;;;;;;5009798;28;11021;-50
2022/01/18 01:49:24;;;;;;;;;8.00;8.00;15.70;99.90;;;;;;5014619;28;11225;-53
2022/01/18 01:51:54;;;;;;;;;10.25;10.25;15.70;99.90;;;;;;5000993;28;10990;-54
2022/01/18 01:54:25;;;;;;;;;10.00;10.00;15.70;99.90;;;;;;5018251;28;11138;-52
2022/01/18 01:56:55;;;;;;;;;9.00;9.00;15.60;99.90;;;;;;5018849;28;11633;-47
2022/01/18 01:59:26;;;;;;;;;9.00;9.00;15.60;99.90;;;;;;5017856;28;11504;-48
2022/01/18 02:02:09;;;;;;;;;8.25;8.25;15.60;99.90;;;;;;5016395;28;10910;-46
2022/01/18 02:04:40;;;;;;;;;11.00;11.00;15.60;99.90;;;;;;5001527;28;11073;-48
2022/01/18 02:07:10;;;;;;;;;10.00;10.00;15.50;99.90;;;;;;5018390;28;11085;-51
2022/01/18 02:09:48;;;;;;;;;8.00;8.00;15.50;99.90;;;;;;5015750;28;11089;-54
2022/01/18 02:12:20;;;;;;;;;8.00;8.00;15.50;99.90;;;;;;5021899;28;11233;-47
2022/01/18 02:14:58;;;;;;;;;7.25;7.25;15.40;99.90;;;;;;5018532;28;11144;-46
2022/01/18 02:23:13;;;;;;;;;9.75;9.75;15.50;99.90;;;;;;5016140;28;11125;-48
2022/01/18 02:25:44;;;;;;;;;8.75;8.75;15.50;99.90;;;;;;5018051;28;11030;-45
2022/01/18 02:28:15;;;;;;;;;9.50;9.50;15.40;99.90;;;;;;5012526;28;12305;-46
2022/01/18 02:30:48;;;;;;;;;7.75;7.75;15.40;99.90;;;;;;5015288;28;12215;-47
2022/01/18 02:33:19;;;;;;;;;8.25;8.25;15.40;99.90;;;;;;5012405;28;11183;-47
2022/01/18 02:35:51;;;;;;;;;10.00;10.00;15.30;99.90;;;;;;4999200;28;11493;-50
2022/01/18 02:38:22;;;;;;;;;9.25;9.25;15.30;99.90;;;;;;5012761;28;11194;-50
2022/01/18 02:40:53;;;;;;;;;6.00;6.00;15.30;99.90;;;;;;5013019;28;11477;-46
2022/01/18 02:46:15;;;;;;;;;13.50;13.50;15.30;99.90;;;;;;5013896;28;11469;-49
2022/01/18 02:48:45;;;;;;;;;10.75;10.75;15.30;99.90;;;;;;5002446;28;11483;-46
2022/01/18 02:51:16;;;;;;;;;8.25;8.25;15.30;99.90;;;;;;5001984;28;12264;-53
2022/01/18 02:53:57;;;;;;;;;11.50;11.50;15.30;99.90;;;;;;5013098;28;11457;-52
2022/01/18 02:56:41;;;;;;;;;9.25;9.25;15.20;99.90;;;;;;5013887;28;11256;-48
2022/01/18 02:59:23;;;;;;;;;13.50;13.50;15.20;99.90;;;;;;5016237;28;11448;-47
2022/01/18 03:04:48;;;;;;;;;11.25;11.25;15.20;99.90;;;;;;5017199;28;12260;-47
2022/01/18 03:07:18;;;;;;;;;10.25;10.25;15.10;99.90;;;;;;5001152;28;12280;-48
2022/01/18 03:09:48;;;;;;;;;15.75;15.75;15.10;99.90;;;;;;5016703;28;11531;-50
2022/01/18 03:12:20;;;;;;;;;16.00;16.00;15.10;99.90;;;;;;5014240;28;11530;-45
2022/01/18 03:14:51;;;;;;;;;15.25;14.25;15.00;99.90;;;;;;5015755;28;11495;-44
2022/01/18 03:17:22;;;;;;;;;18.25;17.50;15.00;99.90;;;;;;5014806;28;11443;-53
2022/01/18 03:19:53;;;;;;;;;18.50;18.50;14.90;99.90;;;;;;5019615;28;11485;-49
2022/01/18 03:22:24;;;;;;;;;18.50;18.50;14.90;99.90;;;;;;5013787;28;11540;-44
2022/01/18 03:25:13;;;;;;;;;16.25;16.25;14.80;99.90;;;;;;5018569;28;11556;-45
2022/01/18 03:28:05;;;;;;;;;13.50;13.50;14.80;99.90;;;;;;5017101;28;11647;-46
2022/01/18 03:30:37;;;;;;;;;14.00;14.00;14.80;99.90;;;;;;5017660;28;11479;-51
2022/01/18 03:33:11;;;;;;;;;14.25;14.25;14.80;99.90;;;;;;5018304;28;11440;-52
2022/01/18 03:35:50;;;;;;;;;14.75;14.75;14.80;99.90;;;;;;5015674;28;11553;-44
2022/01/18 03:38:29;;;;;;;;;12.50;12.50;14.70;99.90;;;;;;5012704;28;11549;-47
2022/01/18 03:41:01;;;;;;;;;12.50;12.50;14.70;99.90;;;;;;5019359;28;11480;-45
2022/01/18 03:43:38;;;;;;;;;12.50;12.50;14.70;99.90;;;;;;5018968;28;11461;-44
2022/01/18 03:46:10;;;;;;;;;15.00;15.00;14.60;99.90;;;;;;5005145;28;12260;-43
2022/01/18 03:48:50;;;;;;;;;11.75;11.75;14.60;99.90;;;;;;5017353;28;11487;-45
2022/01/18 03:51:20;;;;;;;;;14.75;14.75;14.60;99.90;;;;;;5018945;28;11466;-53
2022/01/18 03:53:51;;;;;;;;;20.00;19.00;14.70;99.90;;;;;;5017942;28;11602;-50
2022/01/18 03:56:22;;;;;;;;;23.00;23.00;14.70;99.90;;;;;;5020919;28;11563;-45
2022/01/18 03:58:53;;;;;;;;;24.00;23.00;14.60;99.90;;;;;;5014292;28;12293;-43
2022/01/18 04:01:25;;;;;;;;;23.75;23.75;14.60;99.90;;;;;;5018096;28;12259;-44
2022/01/18 04:03:56;;;;;;;;;32.50;31.50;14.60;99.90;;;;;;5018901;28;11606;-46
2022/01/18 04:06:27;;;;;;;;;36.75;33.75;14.50;99.90;;;;;;5018050;28;12458;-48
2022/01/18 04:08:58;;;;;;;;;30.25;30.25;14.50;99.90;;;;;;5017767;28;11627;-47
2022/01/18 04:11:31;;;;;;;;;24.25;22.25;14.50;99.90;;;;;;5015596;28;11562;-52
2022/01/18 04:14:02;;;;;;;;;16.50;16.50;14.50;99.90;;;;;;5000764;28;11546;-48
2022/01/18 04:16:42;;;;;;;;;17.75;17.75;14.50;99.90;;;;;;5020812;28;11678;-51
2022/01/18 04:28:07;;;;;;;;;12.75;12.00;14.40;99.90;;;;;;5014838;28;11554;-44
2022/01/18 04:30:37;;;;;;;;;17.50;17.50;14.40;99.90;;;;;;5011633;28;11549;-49
2022/01/18 04:33:10;;;;;;;;;18.00;16.50;14.40;99.90;;;;;;5018553;28;11680;-52
2022/01/18 04:35:44;;;;;;;;;17.00;17.00;14.30;99.90;;;;;;5013917;28;12378;-51
2022/01/18 04:38:15;;;;;;;;;14.75;14.75;14.30;99.90;;;;;;5017627;28;11570;-50
2022/01/18 04:40:48;;;;;;;;;16.00;16.00;14.30;99.90;;;;;;5017272;28;11545;-50
2022/01/18 04:43:44;;;;;;;;;12.25;12.25;14.30;99.90;;;;;;4998174;28;12340;-51
2022/01/18 04:49:07;;;;;;;;;19.75;19.50;14.20;99.90;;;;;;5005117;28;11548;-43
2022/01/18 04:51:40;;;;;;;;;18.50;18.50;14.10;99.90;;;;;;5016022;28;11558;-44
2022/01/18 04:54:12;;;;;;;;;16.75;16.50;14.10;99.90;;;;;;5020886;28;11588;-45
2022/01/18 04:59:15;;;;;;;;;14.25;14.25;14.10;99.90;;;;;;5018942;28;11513;-55
2022/01/18 05:01:51;;;;;;;;;20.50;20.50;14.10;99.90;;;;;;5011788;28;11708;-43
2022/01/18 05:04:24;;;;;;;;;20.25;20.25;14.00;99.90;;;;;;5016379;28;11582;-45
2022/01/18 05:06:59;;;;;;;;;13.75;13.75;14.00;99.90;;;;;;5014256;28;11641;-46
2022/01/18 05:09:29;;;;;;;;;20.75;20.75;13.90;99.90;;;;;;5017166;28;11705;-45
2022/01/18 05:12:08;;;;;;;;;19.75;19.75;13.90;99.90;;;;;;5013248;28;11611;-51
2022/01/18 05:14:40;;;;;;;;;20.50;20.50;13.90;99.90;;;;;;5016570;28;11630;-51
2022/01/18 05:18:10;;;;;;;;;22.50;22.50;13.90;99.90;;;;;;5016171;28;11575;-45
2022/01/18 05:20:38;;;;;;;;;24.50;23.00;14.00;99.90;;;;;;5012207;28;11526;-45
2022/01/18 05:23:05;;;;;;;;;24.00;24.00;14.00;99.90;;;;;;5013659;28;12351;-45
2022/01/18 05:25:37;;;;;;;;;22.75;22.75;14.00;99.90;;;;;;5016613;28;11568;-53
2022/01/18 05:28:08;;;;;;;;;21.00;21.00;14.00;99.90;;;;;;5015547;28;11626;-54
2022/01/18 05:30:44;;;;;;;;;19.25;19.25;13.90;99.90;;;;;;5015975;28;11580;-45
2022/01/18 05:33:15;;;;;;;;;17.75;17.75;13.90;99.90;;;;;;5017695;28;11539;-47
2022/01/18 05:35:45;;;;;;;;;21.75;21.75;13.80;99.90;;;;;;5015385;28;11586;-47
2022/01/18 05:38:19;;;;;;;;;25.00;25.00;13.80;99.90;;;;;;5011022;28;12274;-46
2022/01/18 05:40:51;;;;;;;;;22.50;22.50;13.80;99.90;;;;;;4998792;28;11563;-44
2022/01/18 05:43:22;;;;;;;;;24.50;24.50;13.80;99.90;;;;;;5012832;28;11583;-47
2022/01/18 05:45:54;;;;;;;;;22.50;22.50;13.80;99.90;;;;;;5020511;28;11566;-46
2022/01/18 05:48:26;;;;;;;;;21.50;21.50;13.80;99.90;;;;;;5018123;28;12292;-44
2022/01/18 05:51:00;;;;;;;;;21.50;21.50;13.80;99.90;;;;;;5020095;28;11578;-45
2022/01/18 05:53:36;;;;;;;;;18.00;18.00;13.80;99.90;;;;;;5014500;28;11547;-46
2022/01/18 05:56:14;;;;;;;;;23.00;22.25;13.70;99.90;;;;;;5015414;28;11563;-54
2022/01/18 05:58:45;;;;;;;;;22.75;21.00;13.70;99.90;;;;;;5015616;28;11524;-53
2022/01/18 06:01:27;;;;;;;;;23.25;23.25;13.80;99.90;;;;;;5017489;28;11544;-53
2022/01/18 06:09:19;;;;;;;;;22.25;22.25;13.80;99.90;;;;;;5015817;28;11621;-44
2022/01/18 06:11:50;;;;;;;;;24.25;24.25;13.80;99.90;;;;;;5017609;28;11537;-45
2022/01/18 06:14:20;;;;;;;;;23.75;23.75;13.80;99.90;;;;;;5014548;28;11574;-43
2022/01/18 06:16:51;;;;;;;;;25.50;24.25;13.70;99.90;;;;;;5018109;28;11542;-44
2022/01/18 06:19:22;;;;;;;;;24.25;22.50;13.70;99.90;;;;;;5014787;28;11599;-45
2022/01/18 06:21:53;;;;;;;;;25.25;24.00;13.70;99.90;;;;;;5016139;28;11617;-48
2022/01/18 06:24:22;;;;;;;;;27.00;25.75;13.70;99.90;;;;;;5013352;28;11601;-43
2022/01/18 06:27:09;;;;;;;;;27.00;27.00;13.80;99.90;;;;;;5015669;28;12278;-44
2022/01/18 06:29:46;;;;;;;;;22.75;22.00;13.70;99.90;;;;;;5013014;28;12403;-44
2022/01/18 06:32:19;;;;;;;;;22.75;22.75;13.70;99.90;;;;;;5015295;28;11577;-44
2022/01/18 06:34:49;;;;;;;;;29.75;29.00;13.60;99.90;;;;;;5012920;28;11611;-46
2022/01/18 06:37:19;;;;;;;;;24.50;24.50;13.60;99.90;;;;;;5016713;28;13116;-45
2022/01/18 06:39:50;;;;;;;;;21.75;21.75;13.60;99.90;;;;;;5007534;28;11548;-48
2022/01/18 06:42:20;;;;;;;;;22.00;22.00;13.60;99.90;;;;;;5014945;28;11750;-46
2022/01/18 06:44:52;;;;;;;;;24.00;24.00;13.60;99.90;;;;;;5012144;28;11582;-47
2022/01/18 06:47:24;;;;;;;;;23.00;23.00;13.60;99.90;;;;;;5013346;28;11604;-45
2022/01/18 06:49:55;;;;;;;;;26.75;25.00;13.50;99.90;;;;;;5012317;28;11662;-44
2022/01/18 06:52:27;;;;;;;;;29.25;29.25;13.50;99.90;;;;;;5014593;28;12295;-45
2022/01/18 06:54:57;;;;;;;;;26.25;26.25;13.50;99.90;;;;;;4995129;28;11614;-48
2022/01/18 06:57:28;;;;;;;;;24.25;23.50;13.50;99.90;;;;;;5017989;28;11610;-45
2022/01/18 06:59:59;;;;;;;;;24.75;24.75;13.60;99.90;;;;;;5013782;28;11761;-44
2022/01/18 07:02:30;;;;;;;;;27.50;27.50;13.60;99.90;;;;;;5010105;28;11577;-49
2022/01/18 07:05:00;;;;;;;;;24.75;24.75;13.60;99.90;;;;;;5015911;28;11568;-53
2022/01/18 07:07:30;;;;;;;;;26.00;25.00;13.50;99.90;;;;;;5015238;28;11674;-47
2022/01/18 07:10:01;;;;;;;;;32.25;30.00;13.50;99.90;;;;;;5014661;28;11580;-47
2022/01/18 07:12:34;;;;;;;;;28.75;28.75;13.50;99.90;;;;;;5011863;28;11519;-51
2022/01/18 07:15:06;;;;;;;;;21.75;21.75;13.50;99.90;;;;;;5011830;28;11555;-52
2022/01/18 07:17:40;;;;;;;;;26.25;24.25;13.50;99.90;;;;;;5016041;28;11567;-45
2022/01/18 07:20:10;;;;;;;;;23.25;23.00;13.50;99.90;;;;;;5014996;28;11512;-47
2022/01/18 07:22:42;;;;;;;;;27.25;26.00;13.50;99.90;;;;;;5016827;28;11540;-45
2022/01/18 07:25:18;;;;;;;;;24.00;24.00;13.50;99.90;;;;;;5016736;28;11561;-45
2022/01/18 07:27:49;;;;;;;;;19.00;17.50;13.40;99.90;;;;;;5012353;28;11593;-46
2022/01/18 07:30:19;;;;;;;;;23.75;22.25;13.40;99.90;;;;;;5013432;28;11636;-46
2022/01/18 07:32:50;;;;;;;;;23.00;22.00;13.30;99.90;;;;;;5013177;28;11677;-46
2022/01/18 07:35:20;;;;;;;;;18.75;18.75;13.40;99.90;;;;;;5015792;28;11579;-47
2022/01/18 07:37:51;;;;;;;;;22.75;22.75;13.40;99.90;;;;;;5000138;28;11581;-47
2022/01/18 07:40:22;;;;;;;;;20.25;20.25;13.40;99.90;;;;;;5012111;28;11662;-51
2022/01/18 07:42:54;;;;;;;;;22.50;19.50;13.40;99.90;;;;;;5018370;28;11564;-53
2022/01/18 07:45:24;;;;;;;;;17.75;17.75;13.40;99.90;;;;;;5015414;28;11627;-45
2022/01/18 07:47:55;;;;;;;;;22.00;22.00;13.40;99.90;;;;;;5013582;28;11558;-45
2022/01/18 07:50:25;;;;;;;;;18.00;18.00;13.30;99.90;;;;;;5015207;28;11583;-49
2022/01/18 07:52:56;;;;;;;;;13.50;13.50;13.30;99.90;;;;;;4994100;28;11529;-48
2022/01/18 07:55:27;;;;;;;;;18.75;18.75;13.30;99.90;;;;;;5012457;28;11533;-45
2022/01/18 07:57:59;;;;;;;;;16.75;16.50;13.30;99.90;;;;;;5014005;28;11613;-46
2022/01/18 08:00:32;;;;;;;;;17.00;17.00;13.30;99.90;;;;;;4998350;28;11620;-46
2022/01/18 08:03:04;;;;;;;;;15.25;15.25;13.20;99.90;;;;;;5013440;28;11528;-46
2022/01/18 08:05:34;;;;;;;;;18.00;18.00;13.20;99.90;;;;;;5015344;28;11583;-47
2022/01/18 08:08:09;;;;;;;;;18.25;18.25;13.20;99.90;;;;;;5004192;28;11530;-49
2022/01/18 08:10:41;;;;;;;;;15.75;15.25;13.10;99.90;;;;;;5016357;28;11624;-45
2022/01/18 08:13:13;;;;;;;;;18.75;18.75;13.10;99.90;;;;;;5018614;28;11599;-45
2022/01/18 08:15:56;;;;;;;;;17.50;17.50;13.00;99.90;;;;;;5019441;28;11722;-47
2022/01/18 08:18:27;;;;;;;;;17.00;17.00;13.00;99.90;;;;;;5012453;28;11552;-49
2022/01/18 08:20:57;;;;;;;;;17.50;17.50;13.00;99.90;;;;;;5014884;28;11673;-47
2022/01/18 08:23:28;;;;;;;;;14.50;14.50;13.00;99.90;;;;;;5014795;28;11546;-44
2022/01/18 08:26:00;;;;;;;;;11.25;11.25;13.00;99.90;;;;;;5018317;28;11532;-46
2022/01/18 08:28:31;;;;;;;;;15.00;15.00;13.00;99.90;;;;;;5009942;28;11507;-46
2022/01/18 08:31:03;;;;;;;;;16.00;16.00;13.00;99.90;;;;;;5003263;28;11541;-45
2022/01/18 08:33:34;;;;;;;;;10.25;10.25;13.00;99.90;;;;;;5016484;28;11694;-45
2022/01/18 08:36:06;;;;;;;;;10.75;10.75;13.00;99.90;;;;;;5016343;28;11548;-46
2022/01/18 08:38:39;;;;;;;;;15.00;15.00;12.90;99.90;;;;;;5017336;28;11980;-46
2022/01/18 08:41:10;;;;;;;;;9.50;9.50;12.90;99.90;;;;;;5017822;28;11542;-46
2022/01/18 08:43:41;;;;;;;;;13.75;13.25;12.90;99.90;;;;;;5015064;28;11778;-48
2022/01/18 08:46:13;;;;;;;;;13.00;13.00;12.90;99.90;;;;;;5016972;28;11528;-47
2022/01/18 08:48:44;;;;;;;;;11.25;11.25;12.80;99.90;;;;;;5016247;28;11642;-48
2022/01/18 08:51:14;;;;;;;;;17.50;16.25;12.70;99.90;;;;;;5021726;28;11546;-45
2022/01/18 08:53:48;;;;;;;;;15.25;13.25;12.60;99.90;;;;;;5016738;28;11497;-47
2022/01/18 08:56:20;;;;;;;;;13.00;13.00;12.60;99.90;;;;;;5017437;28;11559;-45
2022/01/18 08:59:14;;;;;;;;;17.00;17.00;12.60;99.90;;;;;;4998378;28;12353;-47
2022/01/18 09:01:44;;;;;;;;;13.75;13.75;12.60;99.90;;;;;;4999466;28;11526;-46
2022/01/18 09:04:16;;;;;;;;;13.25;13.25;12.50;99.90;;;;;;5017566;28;11589;-47
2022/01/18 09:06:50;;;;;;;;;15.50;13.75;12.50;99.90;;;;;;5016337;28;11507;-45
2022/01/18 09:09:20;;;;;;;;;15.50;15.50;12.50;99.90;;;;;;5017235;28;11586;-45
2022/01/18 09:11:51;;;;;;;;;15.25;14.00;12.50;99.90;;;;;;5018242;28;11564;-45
2022/01/18 09:14:21;;;;;;;;;13.00;13.00;12.50;99.90;;;;;;5015032;28;11552;-44
2022/01/18 09:16:52;;;;;;;;;14.75;14.75;12.40;99.90;;;;;;5015818;28;11528;-45
2022/01/18 09:19:23;;;;;;;;;12.75;12.75;12.40;99.90;;;;;;5015961;28;11673;-46
2022/01/18 09:21:54;;;;;;;;;16.25;16.25;12.40;99.90;;;;;;5017083;28;11610;-46
2022/01/18 09:24:25;;;;;;;;;16.00;16.00;12.50;99.90;;;;;;4998782;28;11575;-45
2022/01/18 09:26:56;;;;;;;;;17.75;17.75;12.40;99.90;;;;;;4983729;28;11548;-45
2022/01/18 09:29:33;;;;;;;;;14.75;14.75;12.30;99.90;;;;;;5011041;28;11549;-44
2022/01/18 09:32:04;;;;;;;;;16.50;15.25;12.30;99.90;;;;;;5018184;28;11574;-49
2022/01/18 09:34:34;;;;;;;;;15.00;15.00;12.40;99.90;;;;;;5011532;28;11689;-45
2022/01/18 09:37:05;;;;;;;;;16.25;16.25;12.40;99.90;;;;;;5015793;28;11785;-44
2022/01/18 09:39:35;;;;;;;;;16.75;16.75;12.40;99.90;;;;;;5016002;28;12290;-46
2022/01/18 09:42:07;;;;;;;;;12.25;12.25;12.40;99.90;;;;;;5014335;28;11588;-47
2022/01/18 09:44:39;;;;;;;;;14.50;14.00;12.30;99.90;;;;;;5014515;28;11564;-45
2022/01/18 09:47:10;;;;;;;;;13.25;13.25;12.30;99.90;;;;;;5018358;28;11499;-45
2022/01/18 09:49:41;;;;;;;;;13.75;13.75;12.30;99.90;;;;;;5017040;28;11536;-47
2022/01/18 09:52:13;;;;;;;;;18.25;18.25;12.30;99.90;;;;;;5016731;28;11565;-50
2022/01/18 09:54:44;;;;;;;;;20.25;18.00;12.30;99.90;;;;;;5017309;28;12689;-48
2022/01/18 09:57:14;;;;;;;;;22.00;19.25;12.30;99.90;;;;;;5018053;28;12345;-46
2022/01/18 09:59:44;;;;;;;;;18.50;18.50;12.20;99.90;;;;;;5012029;28;11706;-47
2022/01/18 10:02:13;;;;;;;;;19.50;19.50;12.20;99.90;;;;;;5016440;28;11604;-45
2022/01/18 10:04:47;;;;;;;;;20.25;20.25;12.20;99.90;;;;;;5018738;28;12341;-45
2022/01/18 10:07:18;;;;;;;;;19.00;18.00;12.10;99.90;;;;;;5013698;28;11622;-45
2022/01/18 10:10:00;;;;;;;;;27.25;25.25;12.10;99.90;;;;;;5017600;28;11554;-45
2022/01/18 10:12:29;;;;;;;;;28.00;28.00;12.10;99.90;;;;;;5015569;28;12213;-47
2022/01/18 10:15:06;;;;;;;;;31.33;31.33;12.10;99.90;;;;;;4999924;28;12320;-46
2022/01/18 10:17:39;;;;;;;;;34.00;33.33;12.00;99.90;;;;;;5014105;28;11546;-47
2022/01/18 10:20:19;;;;;;;;;38.33;35.67;12.00;99.90;;;;;;5012043;28;13223;-45
2022/01/18 10:22:53;;;;;;;;;34.33;33.33;12.00;99.90;;;;;;5016628;28;8849;-47
2022/01/18 10:25:27;;;;;;;;;34.33;33.33;12.00;99.90;;;;;;5016011;28;11540;-48
2022/01/18 10:27:57;;;;;;;;;34.67;33.67;11.80;99.90;;;;;;4970660;28;8869;-45
2022/01/18 10:30:49;;;;;;;;;39.67;36.33;11.70;99.90;;;;;;5016947;28;8885;-45
2022/01/18 10:33:26;;;;;;;;;36.00;34.67;11.70;99.90;;;;;;5016496;28;8888;-46
2022/01/18 10:36:16;;;;;;;;;35.67;34.33;11.80;99.90;;;;;;5011327;28;8826;-46
2022/01/18 10:38:50;;;;;;;;;33.33;32.67;11.80;99.90;;;;;;5021341;28;8898;-45
2022/01/18 10:41:42;;;;;;;;;29.00;29.00;11.80;99.90;;;;;;5015394;28;8869;-47
2022/01/18 10:44:16;;;;;;;;;22.00;22.00;11.80;99.90;;;;;;5014436;28;8866;-46
2022/01/18 10:46:55;;;;;;;;;23.00;19.75;11.80;99.90;;;;;;5012133;28;8834;-46
2022/01/18 10:49:39;;;;;;;;;18.00;18.00;11.70;99.90;;;;;;5019470;28;11578;-45
2022/01/18 10:52:21;;;;;;;;;20.75;20.50;11.70;99.90;;;;;;5013101;28;11530;-45
2022/01/18 10:54:55;;;;;;;;;23.50;23.50;11.70;99.90;;;;;;5012445;28;11633;-43
2022/01/18 10:57:33;;;;;;;;;26.00;25.00;11.70;99.90;;;;;;5013667;28;11555;-46
2022/01/18 11:00:09;;;;;;;;;24.75;24.75;11.60;99.90;;;;;;5016120;28;11749;-46
2022/01/18 11:02:43;;;;;;;;;29.75;29.75;11.60;99.90;;;;;;5018712;28;11578;-46
2022/01/18 11:05:29;;;;;;;;;22.75;22.75;11.40;99.90;;;;;;5016956;28;11597;-48
2022/01/18 11:08:02;;;;;;;;;25.25;23.75;11.30;99.90;;;;;;5017580;28;11510;-47
2022/01/18 11:10:40;;;;;;;;;23.50;23.50;11.30;99.90;;;;;;5013865;28;11658;-46
2022/01/18 11:13:34;;;;;;;;;26.00;26.00;11.30;99.90;;;;;;5016216;28;11542;-47
2022/01/18 11:16:13;;;;;;;;;24.00;24.00;11.20;99.90;;;;;;5017670;28;11626;-45
2022/01/18 11:18:46;;;;;;;;;19.50;19.50;11.20;99.90;;;;;;5014085;28;11575;-45
2022/01/18 11:21:19;;;;;;;;;21.50;20.75;11.30;99.90;;;;;;5013325;28;11534;-47
2022/01/18 11:23:52;;;;;;;;;19.00;19.00;11.30;99.90;;;;;;5013545;28;11513;-46
2022/01/18 11:26:24;;;;;;;;;23.00;21.00;11.30;99.90;;;;;;5019550;28;11579;-47
2022/01/18 11:28:56;;;;;;;;;21.50;21.00;11.30;99.90;;;;;;5013339;28;11606;-46
2022/01/18 11:31:27;;;;;;;;;21.75;20.25;11.30;99.90;;;;;;5020086;28;11592;-48
2022/01/18 11:34:00;;;;;;;;;17.75;17.75;11.30;99.90;;;;;;5019527;28;11521;-47
2022/01/18 11:36:39;;;;;;;;;18.75;17.00;11.20;99.90;;;;;;5016742;28;11595;-48
2022/01/18 11:39:13;;;;;;;;;17.00;14.75;11.30;99.90;;;;;;4997033;28;11575;-48
2022/01/18 11:41:46;;;;;;;;;19.25;19.25;11.20;99.90;;;;;;5021346;28;11707;-49
2022/01/18 11:44:19;;;;;;;;;18.00;18.00;11.20;99.90;;;;;;5025133;28;11525;-49
2022/01/18 11:46:55;;;;;;;;;13.50;13.50;11.20;99.90;;;;;;5021318;28;11542;-48
2022/01/18 11:49:29;;;;;;;;;19.00;19.00;11.20;99.90;;;;;;5022344;28;11532;-48
2022/01/18 11:52:05;;;;;;;;;18.00;18.00;11.10;99.90;;;;;;5021365;28;11578;-49
2022/01/18 11:57:25;;;;;;;;;18.75;18.75;11.10;99.90;;;;;;5018249;28;11548;-47
2022/01/18 12:00:08;;;;;;;;;21.25;21.25;11.10;99.90;;;;;;5020539;28;11694;-47
2022/01/18 12:02:44;;;;;;;;;22.50;18.50;11.00;99.90;;;;;;5017728;28;11717;-49
2022/01/18 12:05:21;;;;;;;;;18.25;16.25;11.00;99.90;;;;;;5020316;28;11604;-47
2022/01/18 12:07:54;;;;;;;;;19.50;19.50;11.00;99.90;;;;;;5023654;28;11551;-47
2022/01/18 12:10:31;;;;;;;;;17.00;17.00;10.90;99.90;;;;;;5022968;28;11506;-47
2022/01/18 12:13:03;;;;;;;;;19.00;19.00;10.90;99.90;;;;;;5014981;28;11536;-45
2022/01/18 12:15:36;;;;;;;;;18.00;18.00;10.90;99.90;;;;;;5017773;28;11665;-43
2022/01/18 12:18:14;;;;;;;;;19.00;19.00;10.90;99.90;;;;;;5017798;28;12278;-45
2022/01/18 12:20:48;;;;;;;;;19.25;19.00;10.90;99.90;;;;;;5019940;28;11565;-47
2022/01/18 12:23:20;;;;;;;;;16.00;16.00;10.90;99.90;;;;;;5019337;28;11568;-46
2022/01/18 12:37:26;;;;;;;;;19.50;17.50;10.70;99.90;;;;;;5019835;28;11534;-45
2022/01/18 12:45:16;;;;;;;;;20.75;20.75;10.70;99.90;;;;;;5012865;28;11528;-49
2022/01/18 12:47:58;;;;;;;;;20.00;20.00;10.50;99.90;;;;;;5019495;28;12310;-46
2022/01/18 12:50:40;;;;;;;;;18.75;18.75;10.40;99.90;;;;;;5016353;28;12231;-44
2022/01/18 12:53:21;;;;;;;;;17.50;17.50;10.40;99.90;;;;;;5019379;28;11561;-47
2022/01/18 12:55:57;;;;;;;;;18.50;18.50;10.40;99.90;;;;;;5011758;28;11542;-46
2022/01/18 12:58:34;;;;;;;;;25.50;25.50;10.40;99.90;;;;;;5019469;28;11515;-47
2022/01/18 13:01:07;;;;;;;;;22.00;20.50;10.40;99.90;;;;;;5015178;28;11562;-49
2022/01/18 13:03:43;;;;;;;;;21.00;21.00;10.40;99.90;;;;;;5004499;28;11570;-45
2022/01/18 13:06:17;;;;;;;;;18.75;18.75;10.50;99.90;;;;;;5018257;28;11580;-45
2022/01/18 13:08:58;;;;;;;;;21.25;21.25;10.60;99.90;;;;;;5017753;28;11640;-44
2022/01/18 13:11:34;;;;;;;;;17.50;15.75;10.60;99.90;;;;;;5017365;28;11593;-45
2022/01/18 13:14:12;;;;;;;;;8.75;8.75;10.60;99.90;;;;;;5018664;28;11570;-44
2022/01/18 13:25:24;;;;;;;;;21.50;20.75;10.60;99.90;;;;;;5013366;28;11561;-47
2022/01/18 13:28:02;;;;;;;;;21.00;21.00;10.60;99.90;;;;;;5016693;28;11566;-46
2022/01/18 13:30:32;;;;;;;;;27.25;25.25;10.50;99.90;;;;;;5015084;28;11529;-48
2022/01/18 13:33:05;;;;;;;;;21.50;21.50;10.50;99.90;;;;;;5017403;28;11530;-45
2022/01/18 13:35:37;;;;;;;;;20.75;20.75;10.50;99.90;;;;;;5015042;28;11537;-44
2022/01/18 13:38:08;;;;;;;;;18.75;17.25;10.40;99.90;;;;;;5016094;28;11526;-45
2022/01/18 13:40:41;;;;;;;;;17.00;17.00;10.40;99.90;;;;;;5015747;28;11695;-46
2022/01/18 13:43:16;;;;;;;;;18.25;18.25;10.40;99.90;;;;;;5017798;28;11548;-45
2022/01/18 13:45:46;;;;;;;;;17.00;17.00;10.50;99.90;;;;;;5017131;28;11578;-44
2022/01/18 13:48:17;;;;;;;;;23.75;22.00;10.50;99.90;;;;;;5016807;28;12276;-45
2022/01/18 13:50:55;;;;;;;;;23.25;21.50;10.50;99.90;;;;;;5016340;28;11607;-46
2022/01/18 13:53:34;;;;;;;;;16.50;16.50;10.50;99.90;;;;;;5016000;28;11741;-46
2022/01/18 13:56:13;;;;;;;;;19.25;17.25;10.60;99.90;;;;;;5016989;28;11689;-46
2022/01/18 13:58:48;;;;;;;;;19.00;19.00;10.60;99.90;;;;;;5015592;28;11605;-45
2022/01/18 14:01:24;;;;;;;;;19.75;19.75;10.50;99.90;;;;;;5015537;28;11715;-45
2022/01/18 14:04:02;;;;;;;;;22.75;22.75;10.50;99.90;;;;;;5005230;28;11556;-45
2022/01/18 14:06:40;;;;;;;;;18.00;18.00;10.50;99.90;;;;;;5016110;28;11584;-44
2022/01/18 14:09:12;;;;;;;;;22.00;20.25;10.50;99.90;;;;;;5016102;28;11613;-45
2022/01/18 14:11:51;;;;;;;;;22.75;22.75;10.50;99.90;;;;;;5015759;28;11575;-46
2022/01/18 14:14:33;;;;;;;;;19.50;19.00;10.40;99.90;;;;;;5016247;28;12122;-47
2022/01/18 14:17:12;;;;;;;;;21.25;21.25;10.50;99.90;;;;;;5016138;28;11578;-45
2022/01/18 14:19:45;;;;;;;;;21.00;21.00;10.50;99.90;;;;;;5021013;28;11569;-49
2022/01/18 14:22:26;;;;;;;;;18.25;18.25;10.50;99.90;;;;;;5015182;28;11547;-48
2022/01/18 14:25:01;;;;;;;;;18.75;18.75;10.50;99.90;;;;;;5002469;28;11584;-48
2022/01/18 14:27:43;;;;;;;;;21.50;21.50;10.50;99.90;;;;;;5015129;28;11601;-47
2022/01/18 14:30:25;;;;;;;;;19.00;19.00;10.50;99.90;;;;;;5014030;28;11565;-47
2022/01/18 14:32:57;;;;;;;;;19.25;19.25;10.50;99.90;;;;;;5017495;28;11536;-46
2022/01/18 14:35:28;;;;;;;;;13.00;13.00;10.60;99.90;;;;;;5012435;28;11564;-45